Time;durP1;ratioP1;P1;durP2;ratioP2;P2;SDS_P1;SDS_P2;PMS_P1;PMS_P2;Temp;Humidity;BMP_temperature;BMP_pressure;BME280_temperature;BME280_humidity;BME280_pressure;Samples;Min_cycle;Max_cycle;Signal;HPM_P1;HPM_P2
2021/12/09 00:01:02;;;;;;;61.05;23.90;;;2.40;99.90;;;;;;5049635;28;20021;-76
2021/12/09 00:03:32;;;;;;;55.78;24.52;;;2.40;99.90;;;;;;5051191;28;20031;-72
2021/12/09 00:05:58;;;;;;;58.15;23.77;;;2.40;99.90;;;;;;5050841;28;20104;-76
2021/12/09 00:08:28;;;;;;;53.70;23.05;;;2.40;99.90;;;;;;5052839;28;20029;-74
2021/12/09 00:10:55;;;;;;;61.83;24.50;;;2.40;99.90;;;;;;5049997;28;20497;-74
2021/12/09 00:13:22;;;;;;;54.90;24.15;;;2.40;99.90;;;;;;5050342;28;20028;-73
2021/12/09 00:15:49;;;;;;;52.58;23.30;;;2.30;99.90;;;;;;5031505;28;20025;-73
2021/12/09 00:18:14;;;;;;;56.47;24.30;;;2.30;99.90;;;;;;5050557;28;20025;-74
2021/12/09 00:20:40;;;;;;;56.53;23.67;;;2.30;99.90;;;;;;5050320;28;20032;-74
2021/12/09 00:23:07;;;;;;;57.58;22.95;;;2.30;99.90;;;;;;5048841;28;20123;-74
2021/12/09 00:25:33;;;;;;;61.17;25.83;;;2.30;99.90;;;;;;5048613;28;20541;-73
2021/12/09 00:27:59;;;;;;;58.80;23.90;;;2.30;99.90;;;;;;5031876;28;20029;-74
2021/12/09 00:30:25;;;;;;;56.72;24.35;;;2.30;99.90;;;;;;5050542;28;20074;-75
2021/12/09 00:32:51;;;;;;;57.20;23.58;;;2.30;99.90;;;;;;5050721;28;20025;-73
2021/12/09 00:35:18;;;;;;;57.85;23.73;;;2.30;99.90;;;;;;5048200;28;20425;-71
2021/12/09 00:37:59;;;;;;;62.28;25.58;;;2.30;99.90;;;;;;5050306;28;20021;-75
2021/12/09 00:40:25;;;;;;;56.30;24.08;;;2.30;99.90;;;;;;5049843;28;20025;-76
2021/12/09 00:42:51;;;;;;;59.28;24.38;;;2.30;99.90;;;;;;5049442;28;20035;-76
2021/12/09 00:45:17;;;;;;;58.35;22.83;;;2.30;99.90;;;;;;5050025;28;20056;-75
2021/12/09 00:47:43;;;;;;;61.47;25.33;;;2.30;99.90;;;;;;5049691;28;20504;-75
2021/12/09 00:50:10;;;;;;;55.08;24.63;;;2.30;99.90;;;;;;5031332;28;20340;-75
2021/12/09 00:52:36;;;;;;;53.50;22.38;;;2.30;99.90;;;;;;5049659;28;20025;-74
2021/12/09 00:55:04;;;;;;;59.92;24.00;;;2.30;99.90;;;;;;5050887;28;20033;-74
2021/12/09 00:57:30;;;;;;;58.38;24.05;;;2.40;99.90;;;;;;5047616;28;20032;-72
2021/12/09 00:59:56;;;;;;;55.80;24.42;;;2.40;99.90;;;;;;5050205;28;20021;-72
2021/12/09 01:02:21;;;;;;;53.22;23.52;;;2.40;99.90;;;;;;5050507;28;20025;-74
2021/12/09 01:04:49;;;;;;;56.22;24.25;;;2.50;99.90;;;;;;5031954;28;20036;-74
2021/12/09 01:07:15;;;;;;;51.22;23.67;;;2.40;99.90;;;;;;5051486;28;20046;-73
2021/12/09 01:09:41;;;;;;;54.78;24.15;;;2.40;99.90;;;;;;5049599;28;20025;-73
2021/12/09 01:12:07;;;;;;;54.35;24.45;;;2.40;99.90;;;;;;5048040;28;20036;-72
2021/12/09 01:14:36;;;;;;;53.15;24.38;;;2.40;99.90;;;;;;5051610;28;20026;-74
2021/12/09 01:17:04;;;;;;;54.40;24.85;;;2.40;99.90;;;;;;5050321;28;20021;-74
2021/12/09 01:19:30;;;;;;;53.15;24.27;;;2.30;99.90;;;;;;5048510;28;20119;-74
2021/12/09 01:21:56;;;;;;;55.90;23.55;;;2.30;99.90;;;;;;5047772;28;20025;-74
2021/12/09 01:24:22;;;;;;;61.05;24.92;;;2.30;99.90;;;;;;5049924;28;20036;-74
2021/12/09 01:26:49;;;;;;;55.42;24.60;;;2.40;99.90;;;;;;5029972;28;20102;-74
2021/12/09 01:29:19;;;;;;;59.67;23.27;;;2.30;99.90;;;;;;5047987;28;20447;-74
2021/12/09 01:31:54;;;;;;;57.47;24.83;;;2.30;99.90;;;;;;5030747;28;20045;-74
2021/12/09 01:34:21;;;;;;;55.30;25.05;;;2.30;99.90;;;;;;5031055;28;20061;-75
2021/12/09 01:36:49;;;;;;;55.28;25.77;;;2.20;99.90;;;;;;5048835;28;20028;-74
2021/12/09 01:39:16;;;;;;;58.90;24.30;;;2.20;99.90;;;;;;5049891;28;20016;-73
2021/12/09 01:41:42;;;;;;;53.72;24.20;;;2.20;99.90;;;;;;5049604;28;20040;-74
2021/12/09 01:44:08;;;;;;;63.28;26.00;;;2.20;99.90;;;;;;5031271;28;20430;-74
2021/12/09 01:46:33;;;;;;;60.65;25.20;;;2.30;99.90;;;;;;5047245;28;20031;-72
2021/12/09 01:48:59;;;;;;;60.95;25.38;;;2.30;99.90;;;;;;5032100;28;20120;-75
2021/12/09 01:51:25;;;;;;;62.50;26.67;;;2.30;99.90;;;;;;5048050;28;20033;-74
2021/12/09 01:53:52;;;;;;;60.33;26.17;;;2.30;99.90;;;;;;5030754;28;20324;-74
2021/12/09 01:56:21;;;;;;;62.45;26.27;;;2.20;99.90;;;;;;5033279;28;20025;-74
2021/12/09 01:58:53;;;;;;;60.05;25.55;;;2.20;99.90;;;;;;5053069;28;20047;-75
2021/12/09 02:01:19;;;;;;;62.25;26.70;;;2.20;99.90;;;;;;5036041;28;20028;-74
2021/12/09 02:03:45;;;;;;;60.78;26.35;;;2.30;99.90;;;;;;5033614;28;20037;-74
2021/12/09 02:06:11;;;;;;;63.92;26.00;;;2.30;99.90;;;;;;5053205;28;20040;-75
2021/12/09 02:08:37;;;;;;;58.60;25.27;;;2.20;99.90;;;;;;5053134;28;20033;-74
2021/12/09 02:11:03;;;;;;;63.20;27.10;;;2.20;99.90;;;;;;5052191;28;21518;-74
2021/12/09 02:13:29;;;;;;;67.78;26.60;;;2.20;99.90;;;;;;5050742;28;20036;-74
2021/12/09 02:15:56;;;;;;;66.47;26.55;;;2.20;99.90;;;;;;5033872;28;20021;-74
2021/12/09 02:18:22;;;;;;;69.25;27.45;;;2.20;99.90;;;;;;5053223;28;20071;-74
2021/12/09 02:21:15;;;;;;;64.63;27.42;;;2.20;99.90;;;;;;5034487;28;20108;-74
2021/12/09 02:24:02;;;;;;;69.40;27.77;;;2.20;99.90;;;;;;5051850;28;20041;-75
2021/12/09 02:26:33;;;;;;;61.65;26.30;;;2.20;99.90;;;;;;5049516;28;20059;-75
2021/12/09 02:28:59;;;;;;;66.90;27.65;;;2.20;99.90;;;;;;5033796;28;20029;-75
2021/12/09 02:31:26;;;;;;;66.40;27.50;;;2.20;99.90;;;;;;5030130;28;20029;-74
2021/12/09 02:33:52;;;;;;;71.13;28.08;;;2.20;99.90;;;;;;5052052;28;20024;-75
2021/12/09 02:36:18;;;;;;;63.13;26.30;;;2.20;99.90;;;;;;5052943;28;20759;-75
2021/12/09 02:38:45;;;;;;;69.78;28.23;;;2.20;99.90;;;;;;5052850;28;20026;-75
2021/12/09 02:41:19;;;;;;;77.22;28.65;;;2.20;99.90;;;;;;5050325;28;20098;-75
2021/12/09 02:43:56;;;;;;;70.22;26.48;;;2.20;99.90;;;;;;5052950;28;20167;-76
2021/12/09 02:46:26;;;;;;;65.57;27.27;;;2.10;99.90;;;;;;5052475;28;20082;-76
2021/12/09 02:48:52;;;;;;;71.37;26.97;;;2.20;99.90;;;;;;5050806;28;20039;-76
2021/12/09 02:51:19;;;;;;;72.80;28.30;;;2.20;99.90;;;;;;5031676;28;20402;-75
2021/12/09 02:53:45;;;;;;;68.90;28.80;;;2.20;99.90;;;;;;5049187;28;20033;-76
2021/12/09 02:56:12;;;;;;;68.57;26.85;;;2.20;99.90;;;;;;5052553;28;20021;-76
2021/12/09 02:58:39;;;;;;;72.80;28.48;;;2.20;99.90;;;;;;5049268;28;20025;-76
2021/12/09 03:01:18;;;;;;;72.15;27.25;;;2.20;99.90;;;;;;5035068;28;20025;-75
2021/12/09 03:03:51;;;;;;;69.90;29.00;;;2.20;99.90;;;;;;5051141;28;20035;-75
2021/12/09 03:06:22;;;;;;;70.90;29.02;;;2.20;99.90;;;;;;5051076;28;20386;-76
2021/12/09 03:08:49;;;;;;;64.68;26.70;;;2.20;99.90;;;;;;5050517;28;20157;-74
2021/12/09 03:11:21;;;;;;;72.10;28.30;;;2.20;99.90;;;;;;5050674;28;20470;-75
2021/12/09 03:13:49;;;;;;;68.60;27.58;;;2.20;99.90;;;;;;5050752;28;20083;-73
2021/12/09 03:16:15;;;;;;;66.28;26.80;;;2.20;99.90;;;;;;5053915;28;20070;-74
2021/12/09 03:18:45;;;;;;;70.53;28.77;;;2.20;99.90;;;;;;5050863;28;20021;-74
2021/12/09 03:21:17;;;;;;;75.27;28.83;;;2.20;99.90;;;;;;5051257;28;20068;-74
2021/12/09 03:23:44;;;;;;;66.53;26.77;;;2.20;99.90;;;;;;5035958;22;20503;-72
2021/12/09 03:26:10;;;;;;;67.40;27.95;;;2.20;99.90;;;;;;5007703;28;20021;-72
2021/12/09 03:28:35;;;;;;;69.97;28.50;;;2.20;99.90;;;;;;5009777;28;20026;-72
2021/12/09 03:31:01;;;;;;;68.50;28.55;;;2.20;99.90;;;;;;5009029;28;20438;-73
2021/12/09 03:33:27;;;;;;;71.50;29.15;;;2.20;99.90;;;;;;5010197;28;20033;-72
2021/12/09 03:36:01;;;;;;;76.30;29.33;;;2.30;99.90;;;;;;5009472;28;20034;-72
2021/12/09 03:38:28;;;;;;;72.30;29.25;;;2.20;99.90;;;;;;5007143;28;20080;-73
2021/12/09 03:40:55;;;;;;;67.57;27.58;;;2.20;99.90;;;;;;5007725;28;20057;-72
2021/12/09 03:43:21;;;;;;;72.55;27.33;;;2.20;99.90;;;;;;4993564;28;20038;-72
2021/12/09 03:45:48;;;;;;;70.22;28.15;;;2.30;99.90;;;;;;5022153;28;20033;-72
2021/12/09 03:48:14;;;;;;;68.70;26.13;;;2.30;99.90;;;;;;5013361;28;20036;-72
2021/12/09 03:50:40;;;;;;;66.57;27.17;;;2.30;99.90;;;;;;5016156;28;20033;-72
2021/12/09 03:53:06;;;;;;;72.47;28.80;;;2.30;99.90;;;;;;4993336;28;20022;-73
2021/12/09 03:55:31;;;;;;;74.82;30.00;;;2.30;99.90;;;;;;5002076;28;20440;-72
2021/12/09 03:57:57;;;;;;;76.03;29.08;;;2.30;99.90;;;;;;5016792;28;20063;-73
2021/12/09 04:00:28;;;;;;;72.05;27.98;;;2.20;99.90;;;;;;5010900;28;20037;-72
2021/12/09 04:02:54;;;;;;;73.60;29.92;;;2.20;99.90;;;;;;5018468;28;20065;-73
2021/12/09 04:05:20;;;;;;;84.32;30.48;;;2.20;99.90;;;;;;5016649;28;20495;-72
2021/12/09 04:07:45;;;;;;;78.65;29.42;;;2.20;99.90;;;;;;5012210;28;20121;-72
2021/12/09 04:10:11;;;;;;;80.00;29.23;;;2.20;99.90;;;;;;5012234;28;20045;-72
2021/12/09 04:12:37;;;;;;;71.78;27.17;;;2.20;99.90;;;;;;5009862;28;20034;-72
2021/12/09 04:15:05;;;;;;;78.60;29.83;;;2.10;99.90;;;;;;5015461;28;20479;-73
2021/12/09 04:17:31;;;;;;;78.35;30.52;;;2.20;99.90;;;;;;5010723;28;20030;-72
2021/12/09 04:19:57;;;;;;;76.93;29.35;;;2.20;99.90;;;;;;4993937;28;20030;-72
2021/12/09 04:22:23;;;;;;;67.82;27.67;;;2.20;99.90;;;;;;4995925;28;20030;-72
2021/12/09 04:24:51;;;;;;;80.75;31.67;;;2.20;99.90;;;;;;4996472;28;20062;-73
2021/12/09 04:27:17;;;;;;;72.72;29.52;;;2.20;99.90;;;;;;5010178;28;20045;-73
2021/12/09 04:29:43;;;;;;;72.43;28.90;;;2.20;99.90;;;;;;5011805;28;21639;-72
2021/12/09 04:32:09;;;;;;;75.72;28.20;;;2.20;99.90;;;;;;5011228;28;20030;-72
2021/12/09 04:34:35;;;;;;;76.78;28.27;;;2.20;99.90;;;;;;5010814;28;20398;-73
2021/12/09 04:37:01;;;;;;;80.50;29.50;;;2.20;99.90;;;;;;5011094;28;20103;-73
2021/12/09 04:39:27;;;;;;;73.95;28.88;;;2.10;99.90;;;;;;5019071;28;20050;-72
2021/12/09 04:41:54;;;;;;;74.53;27.88;;;2.10;99.90;;;;;;5020560;28;20080;-73
2021/12/09 04:44:21;;;;;;;75.10;30.17;;;2.10;99.90;;;;;;5010181;28;20567;-72
2021/12/09 04:46:47;;;;;;;69.13;27.75;;;2.10;99.90;;;;;;5016856;28;20034;-72
2021/12/09 04:49:13;;;;;;;76.35;30.08;;;2.10;99.90;;;;;;5012088;28;20375;-71
2021/12/09 04:51:39;;;;;;;75.95;28.42;;;2.10;99.90;;;;;;5011970;28;20029;-73
2021/12/09 04:54:06;;;;;;;77.47;29.75;;;2.00;99.90;;;;;;5011158;28;20032;-72
2021/12/09 04:56:33;;;;;;;71.88;27.48;;;2.00;99.90;;;;;;5010552;28;20118;-72
2021/12/09 04:58:59;;;;;;;80.43;29.55;;;2.10;99.90;;;;;;5015225;28;20030;-73
2021/12/09 05:01:25;;;;;;;71.90;29.02;;;2.10;99.90;;;;;;5009764;28;20034;-72
2021/12/09 05:03:51;;;;;;;74.18;27.60;;;2.10;99.90;;;;;;5015768;28;20026;-72
2021/12/09 05:06:17;;;;;;;77.53;29.85;;;2.00;99.90;;;;;;5012622;28;20030;-71
2021/12/09 05:08:47;;;;;;;83.38;29.00;;;2.00;99.90;;;;;;5014745;28;20076;-72
2021/12/09 05:12:01;;;;;;;75.95;27.88;;;2.00;99.90;;;;;;5013026;28;20025;-71
2021/12/09 05:14:03;;;;;;;82.68;29.80;;;2.00;99.90;;;;;;5008726;28;20037;-72
2021/12/09 05:16:29;;;;;;;77.20;30.80;;;2.00;99.90;;;;;;5009791;28;20515;-72
2021/12/09 05:18:59;;;;;;;77.45;28.48;;;1.90;99.90;;;;;;5016144;28;20109;-71
2021/12/09 05:21:29;;;;;;;80.13;31.48;;;1.90;99.90;;;;;;5009926;28;20041;-72
2021/12/09 05:23:55;;;;;;;80.78;29.70;;;2.00;99.90;;;;;;5010804;28;20041;-73
2021/12/09 05:26:26;;;;;;;80.03;27.55;;;1.90;99.90;;;;;;5009188;28;20026;-71
2021/12/09 05:28:55;;;;;;;77.93;29.13;;;1.90;99.90;;;;;;5012397;28;20022;-72
2021/12/09 05:34:06;;;;;;;78.93;30.48;;;1.90;99.90;;;;;;5016180;28;20124;-72
2021/12/09 05:36:31;;;;;;;76.63;28.00;;;1.90;99.90;;;;;;4998816;28;20058;-72
2021/12/09 05:38:57;;;;;;;80.70;29.65;;;2.00;99.90;;;;;;5017955;28;20022;-71
2021/12/09 05:41:23;;;;;;;74.65;28.65;;;2.00;99.90;;;;;;5017905;28;20029;-72
2021/12/09 05:43:49;;;;;;;73.18;29.58;;;2.00;99.90;;;;;;5014444;28;20438;-72
2021/12/09 05:46:16;;;;;;;85.60;30.10;;;2.00;99.90;;;;;;5017160;28;20510;-73
2021/12/09 05:48:41;;;;;;;76.07;30.17;;;2.10;99.90;;;;;;5015348;28;20033;-72
2021/12/09 05:51:07;;;;;;;75.82;29.48;;;2.00;99.90;;;;;;5015856;28;20030;-72
2021/12/09 05:53:33;;;;;;;78.45;30.10;;;2.00;99.90;;;;;;5012682;28;20038;-73
2021/12/09 05:56:00;;;;;;;76.63;28.95;;;2.00;99.90;;;;;;5014905;28;20022;-72
2021/12/09 05:58:26;;;;;;;73.45;28.52;;;2.00;99.90;;;;;;5016437;28;20037;-71
2021/12/09 06:00:53;;;;;;;73.53;29.20;;;2.00;99.90;;;;;;5008645;28;20475;-72
2021/12/09 06:03:20;;;;;;;77.60;28.55;;;2.00;99.90;;;;;;5016595;28;20037;-72
2021/12/09 06:05:47;;;;;;;79.25;30.17;;;2.00;99.90;;;;;;4999529;28;20076;-73
2021/12/09 06:08:12;;;;;;;72.05;28.90;;;1.90;99.90;;;;;;5018619;28;20029;-71
2021/12/09 06:10:38;;;;;;;71.82;28.25;;;2.00;99.90;;;;;;5018344;28;20068;-72
2021/12/09 06:13:04;;;;;;;76.15;29.25;;;2.00;99.90;;;;;;5017551;28;20514;-72
2021/12/09 06:15:30;;;;;;;75.68;30.08;;;2.00;99.90;;;;;;5015147;28;20087;-71
2021/12/09 06:17:56;;;;;;;71.22;30.85;;;1.90;99.90;;;;;;5010391;28;20484;-72
2021/12/09 06:20:24;;;;;;;76.18;30.27;;;1.90;99.90;;;;;;5018581;28;20072;-72
2021/12/09 06:22:49;;;;;;;78.55;29.27;;;2.00;99.90;;;;;;5015765;28;20871;-73
2021/12/09 06:25:18;;;;;;;79.90;29.95;;;2.00;99.90;;;;;;5017721;28;20037;-73
2021/12/09 06:27:46;;;;;;;76.60;27.80;;;2.00;99.90;;;;;;5014039;28;20045;-70
2021/12/09 06:30:12;;;;;;;72.82;28.90;;;2.00;99.90;;;;;;5018862;28;20109;-71
2021/12/09 06:32:38;;;;;;;69.88;27.50;;;1.90;99.90;;;;;;5011434;28;20033;-71
2021/12/09 06:35:05;;;;;;;72.35;29.60;;;1.90;99.90;;;;;;5020055;28;20025;-72
2021/12/09 06:37:31;;;;;;;69.82;28.30;;;1.90;99.90;;;;;;4994222;28;20065;-72
2021/12/09 06:39:57;;;;;;;73.95;28.60;;;1.90;99.90;;;;;;5011422;28;20022;-73
2021/12/09 06:42:22;;;;;;;71.07;28.88;;;2.00;99.90;;;;;;5013229;28;20109;-72
2021/12/09 06:44:48;;;;;;;77.07;30.30;;;1.90;99.90;;;;;;5010780;28;20444;-72
2021/12/09 06:47:14;;;;;;;71.18;29.27;;;1.90;99.90;;;;;;5011284;28;20033;-70
2021/12/09 06:49:40;;;;;;;79.40;31.05;;;1.90;99.90;;;;;;5011275;28;20033;-72
2021/12/09 06:52:06;;;;;;;77.10;31.23;;;1.90;99.90;;;;;;5012039;28;20033;-72
2021/12/09 06:54:32;;;;;;;83.22;30.65;;;1.90;99.90;;;;;;5011148;28;20025;-72
2021/12/09 06:56:58;;;;;;;73.13;30.88;;;1.90;99.90;;;;;;5010483;28;20072;-72
2021/12/09 06:59:23;;;;;;;75.90;31.20;;;1.90;99.90;;;;;;5010395;28;20026;-71
2021/12/09 07:01:49;;;;;;;77.63;30.10;;;1.90;99.90;;;;;;5010524;28;20464;-72
2021/12/09 07:04:15;;;;;;;72.63;29.67;;;1.90;99.90;;;;;;5009786;28;20034;-72
2021/12/09 07:06:40;;;;;;;78.43;29.52;;;1.90;99.90;;;;;;5012110;28;20037;-71
2021/12/09 07:09:07;;;;;;;79.25;30.88;;;1.90;99.90;;;;;;5016987;28;20034;-72
2021/12/09 07:11:33;;;;;;;81.70;29.17;;;1.90;99.90;;;;;;5010512;28;20030;-75
2021/12/09 07:14:01;;;;;;;79.65;30.15;;;1.90;99.90;;;;;;5016351;28;20106;-76
2021/12/09 07:16:27;;;;;;;76.55;31.25;;;1.90;99.90;;;;;;4996153;28;20022;-77
2021/12/09 07:18:52;;;;;;;76.07;29.85;;;1.90;99.90;;;;;;5014214;28;20101;-77
2021/12/09 07:21:18;;;;;;;73.13;29.90;;;1.90;99.90;;;;;;5013259;28;20471;-78
2021/12/09 07:23:44;;;;;;;74.75;28.65;;;1.90;99.90;;;;;;4997257;28;20037;-78
2021/12/09 07:26:12;;;;;;;80.75;31.17;;;1.90;99.90;;;;;;5008450;28;20678;-78
2021/12/09 07:28:37;;;;;;;77.63;31.42;;;1.90;99.90;;;;;;5012436;28;20033;-78
2021/12/09 07:31:03;;;;;;;77.80;30.80;;;1.90;99.90;;;;;;5003092;28;20022;-77
2021/12/09 07:33:29;;;;;;;80.05;30.50;;;1.90;99.90;;;;;;5013162;28;20119;-78
2021/12/09 07:35:54;;;;;;;81.55;30.60;;;1.90;99.90;;;;;;5020798;28;20029;-78
2021/12/09 07:38:21;;;;;;;84.75;32.20;;;1.90;99.90;;;;;;5012819;28;20026;-77
2021/12/09 07:40:47;;;;;;;76.03;31.13;;;1.90;99.90;;;;;;4996715;28;20037;-77
2021/12/09 07:43:18;;;;;;;78.75;30.65;;;1.90;99.90;;;;;;5000015;28;20597;-77
2021/12/09 07:45:44;;;;;;;82.18;30.85;;;1.90;99.90;;;;;;5019507;28;20107;-77
2021/12/09 07:48:10;;;;;;;79.82;29.73;;;1.90;99.90;;;;;;4995816;28;20057;-77
2021/12/09 07:50:36;;;;;;;81.80;30.90;;;1.90;99.90;;;;;;5018120;28;20065;-76
2021/12/09 07:53:02;;;;;;;81.35;30.45;;;1.90;99.90;;;;;;4994037;28;20061;-76
2021/12/09 07:55:28;;;;;;;75.28;29.23;;;2.00;99.90;;;;;;4999886;28;20048;-76
2021/12/09 07:57:54;;;;;;;74.57;30.45;;;2.00;99.90;;;;;;4994598;28;20041;-74
2021/12/09 08:00:24;;;;;;;83.20;31.33;;;2.00;99.90;;;;;;5014376;28;20032;-72
2021/12/09 08:02:52;;;;;;;88.47;32.97;;;2.00;99.90;;;;;;5018952;28;20029;-71
2021/12/09 08:05:20;;;;;;;77.13;29.35;;;1.90;99.90;;;;;;5012058;28;20058;-72
2021/12/09 08:07:46;;;;;;;82.97;29.90;;;1.90;99.90;;;;;;5012259;28;20090;-71
2021/12/09 08:10:15;;;;;;;80.43;30.23;;;1.90;99.90;;;;;;5013769;28;20037;-73
2021/12/09 08:13:02;;;;;;;81.00;29.83;;;1.90;99.90;;;;;;5010267;28;20037;-73
2021/12/09 08:15:33;;;;;;;84.55;30.85;;;1.90;99.90;;;;;;4970071;28;20077;-72
2021/12/09 08:18:14;;;;;;;80.07;30.08;;;1.90;99.90;;;;;;4969719;28;20113;-72
2021/12/09 08:20:41;;;;;;;78.28;32.03;;;1.90;99.90;;;;;;4972702;28;20600;-71
2021/12/09 08:23:06;;;;;;;77.22;29.33;;;1.90;99.90;;;;;;4972777;28;20496;-72
2021/12/09 08:25:32;;;;;;;80.97;31.25;;;1.90;99.90;;;;;;4965612;28;20043;-73
2021/12/09 08:27:58;;;;;;;85.50;31.27;;;1.90;99.90;;;;;;4970830;28;20037;-72
2021/12/09 08:30:25;;;;;;;89.45;31.73;;;1.90;99.90;;;;;;4968844;28;20030;-72
2021/12/09 08:32:52;;;;;;;80.78;30.17;;;1.90;99.90;;;;;;4966541;28;20382;-73
2021/12/09 08:35:19;;;;;;;83.68;32.30;;;1.90;99.90;;;;;;4966329;28;20370;-72
2021/12/09 08:37:46;;;;;;;87.70;31.45;;;1.90;99.90;;;;;;4967085;28;20459;-72
2021/12/09 08:40:13;;;;;;;85.57;30.77;;;1.90;99.90;;;;;;4971268;28;20378;-72
2021/12/09 08:42:40;;;;;;;79.85;31.83;;;1.90;99.90;;;;;;4968726;28;20042;-72
2021/12/09 08:45:10;;;;;;;84.28;31.85;;;2.00;99.90;;;;;;4969788;28;20035;-72
2021/12/09 08:47:37;;;;;;;77.43;29.98;;;1.90;99.90;;;;;;4974305;28;20034;-73
2021/12/09 08:50:05;;;;;;;84.15;30.83;;;1.90;99.90;;;;;;4970133;28;20035;-72
2021/12/09 08:52:30;;;;;;;80.80;31.20;;;1.90;99.90;;;;;;4988749;28;20038;-72
2021/12/09 08:54:56;;;;;;;84.18;32.28;;;1.90;99.90;;;;;;5009638;28;20080;-73
2021/12/09 08:57:23;;;;;;;77.75;29.25;;;1.90;99.90;;;;;;5010422;28;20539;-72
2021/12/09 08:59:49;;;;;;;88.57;32.90;;;1.80;99.90;;;;;;4994732;28;20042;-72
2021/12/09 09:02:15;;;;;;;86.72;31.75;;;1.90;99.90;;;;;;5014673;28;20068;-71
2021/12/09 09:04:41;;;;;;;83.68;30.60;;;1.90;99.90;;;;;;5015958;28;20108;-72
2021/12/09 09:07:07;;;;;;;80.85;31.15;;;1.90;99.90;;;;;;5022557;28;20526;-72
2021/12/09 09:09:34;;;;;;;80.63;31.88;;;1.90;99.90;;;;;;5014541;28;20018;-72
2021/12/09 09:12:09;;;;;;;83.70;32.13;;;1.90;99.90;;;;;;5014426;28;20455;-72
2021/12/09 09:14:35;;;;;;;83.63;29.92;;;1.90;99.90;;;;;;5015927;28;20033;-71
2021/12/09 09:17:01;;;;;;;85.65;32.20;;;1.90;99.90;;;;;;5014647;28;20034;-74
2021/12/09 09:19:27;;;;;;;78.18;30.50;;;2.00;99.90;;;;;;5019729;28;20025;-72
2021/12/09 09:21:53;;;;;;;74.60;29.80;;;2.00;99.90;;;;;;5001974;28;20108;-72
2021/12/09 09:24:19;;;;;;;85.82;32.80;;;2.00;99.90;;;;;;5022055;22;20050;-74
2021/12/09 09:26:45;;;;;;;81.57;31.20;;;2.00;99.90;;;;;;4982727;28;20033;-74
2021/12/09 09:29:11;;;;;;;82.30;31.92;;;2.10;99.90;;;;;;4982599;28;20031;-73
2021/12/09 09:31:39;;;;;;;80.97;31.55;;;2.00;99.90;;;;;;4980172;28;20022;-74
2021/12/09 09:34:05;;;;;;;85.93;31.52;;;2.10;99.90;;;;;;4978193;28;20515;-74
2021/12/09 09:36:32;;;;;;;88.13;31.90;;;2.10;99.90;;;;;;4983387;28;20034;-74
2021/12/09 09:39:10;;;;;;;82.00;30.55;;;2.10;99.90;;;;;;4985611;28;20061;-71
2021/12/09 09:41:36;;;;;;;92.32;32.10;;;2.10;99.90;;;;;;4983579;28;20035;-74
2021/12/09 09:44:12;;;;;;;88.72;30.40;;;2.10;99.90;;;;;;4983743;28;20034;-74
2021/12/09 09:46:39;;;;;;;77.15;30.10;;;2.10;99.90;;;;;;4980655;28;20031;-75
2021/12/09 09:49:06;;;;;;;85.05;31.40;;;2.10;99.90;;;;;;4984001;28;20062;-72
2021/12/09 09:51:34;;;;;;;79.85;31.48;;;2.10;99.90;;;;;;4983779;28;20030;-74
2021/12/09 09:54:01;;;;;;;90.05;33.38;;;2.10;99.90;;;;;;5009459;28;20511;-74
2021/12/09 09:56:28;;;;;;;81.32;32.78;;;2.20;99.90;;;;;;4983281;28;20476;-73
2021/12/09 09:59:06;;;;;;;81.75;30.77;;;2.20;99.90;;;;;;4982484;28;20081;-73
2021/12/09 10:01:34;;;;;;;86.88;33.25;;;2.20;99.90;;;;;;4982485;28;20388;-74
2021/12/09 10:04:20;;;;;;;83.60;31.02;;;2.20;99.90;;;;;;4983916;28;20574;-73
2021/12/09 10:06:47;;;;;;;79.22;30.45;;;2.10;99.90;;;;;;4983751;28;20522;-74
2021/12/09 10:09:14;;;;;;;86.68;31.50;;;2.20;99.90;;;;;;4984103;28;20044;-74
2021/12/09 10:11:41;;;;;;;84.68;31.58;;;2.20;99.90;;;;;;4982223;28;20399;-74
2021/12/09 10:14:08;;;;;;;81.07;31.40;;;2.10;99.90;;;;;;4982639;28;20033;-74
2021/12/09 10:16:34;;;;;;;79.38;30.58;;;2.20;99.90;;;;;;4983721;28;20085;-73
2021/12/09 10:19:00;;;;;;;90.82;31.33;;;2.10;99.90;;;;;;4984307;28;20026;-71
2021/12/09 10:21:28;;;;;;;90.13;32.92;;;2.10;99.90;;;;;;4984182;28;20030;-73
2021/12/09 10:24:03;;;;;;;80.10;31.40;;;2.10;99.90;;;;;;4984152;28;20042;-73
2021/12/09 10:26:39;;;;;;;91.47;32.40;;;2.10;99.90;;;;;;4983792;28;20606;-74
2021/12/09 10:29:26;;;;;;;86.07;31.48;;;2.10;99.90;;;;;;4983849;28;20031;-74
2021/12/09 10:31:57;;;;;;;85.15;30.58;;;2.10;99.90;;;;;;4984534;28;20221;-74
2021/12/09 10:34:40;;;;;;;85.03;33.42;;;2.10;99.90;;;;;;4988403;28;20034;-74
2021/12/09 10:37:22;;;;;;;88.15;32.00;;;2.20;99.90;;;;;;4983681;28;20030;-74
2021/12/09 10:40:08;;;;;;;83.88;30.05;;;2.20;99.90;;;;;;4998326;28;20452;-74
2021/12/09 10:42:43;;;;;;;75.93;29.65;;;2.20;99.90;;;;;;4983777;28;20046;-74
2021/12/09 10:45:12;;;;;;;80.82;30.95;;;2.20;99.90;;;;;;4985062;28;20041;-74
2021/12/09 10:52:50;;;;;;;82.30;30.83;;;2.20;99.90;;;;;;4985568;28;20429;-73
2021/12/09 10:55:16;;;;;;;80.80;30.33;;;2.20;99.90;;;;;;4982754;28;20530;-73
2021/12/09 10:57:43;;;;;;;88.30;32.92;;;2.20;99.90;;;;;;4984413;28;20061;-74
2021/12/09 11:00:29;;;;;;;86.78;34.30;;;2.30;99.90;;;;;;4983259;28;20034;-73
2021/12/09 11:03:05;;;;;;;84.93;30.95;;;2.30;99.90;;;;;;4985398;28;20030;-74
2021/12/09 11:05:34;;;;;;;76.25;28.67;;;2.40;99.90;;;;;;5010181;28;20045;-72
2021/12/09 11:08:16;;;;;;;84.68;30.38;;;2.40;99.90;;;;;;4984099;28;20100;-74
2021/12/09 11:10:47;;;;;;;85.28;30.48;;;2.40;99.90;;;;;;4983415;28;20030;-74
2021/12/09 11:13:18;;;;;;;84.47;32.22;;;2.50;99.90;;;;;;4984753;28;20035;-75
2021/12/09 11:15:52;;;;;;;82.20;30.48;;;2.50;99.90;;;;;;4985039;28;20030;-73
2021/12/09 11:18:42;;;;;;;83.32;30.85;;;2.50;99.90;;;;;;4981794;28;20023;-73
2021/12/09 11:21:11;;;;;;;81.45;30.70;;;2.50;99.90;;;;;;4983401;28;20053;-73
2021/12/09 11:23:49;;;;;;;79.47;29.13;;;2.50;99.90;;;;;;4983526;28;20112;-74
2021/12/09 11:26:26;;;;;;;82.20;32.35;;;2.50;99.90;;;;;;5006319;28;20049;-72
2021/12/09 11:29:01;;;;;;;79.78;32.15;;;2.50;99.90;;;;;;4981388;28;20038;-75
2021/12/09 11:31:32;;;;;;;82.88;31.23;;;2.50;99.90;;;;;;4999601;28;20421;-75
2021/12/09 11:34:06;;;;;;;82.07;30.02;;;2.60;99.90;;;;;;4985640;28;20038;-75
2021/12/09 11:37:01;;;;;;;80.88;32.30;;;2.60;99.90;;;;;;4986358;28;20389;-77
2021/12/09 11:39:33;;;;;;;85.43;31.00;;;2.60;99.90;;;;;;4982402;28;20037;-74
2021/12/09 11:42:16;;;;;;;84.47;31.95;;;2.60;99.90;;;;;;4980265;28;20080;-74
2021/12/09 11:44:44;;;;;;;81.50;31.20;;;2.50;99.90;;;;;;4979500;28;20443;-77
2021/12/09 11:47:11;;;;;;;83.95;30.35;;;2.50;99.90;;;;;;4980384;28;20058;-76
2021/12/09 11:49:44;;;;;;;84.68;31.67;;;2.50;99.90;;;;;;5073903;28;20433;-73
2021/12/09 11:52:15;;;;;;;83.40;31.40;;;2.50;99.90;;;;;;5073226;28;20024;-75
2021/12/09 11:54:48;;;;;;;84.28;31.02;;;2.50;99.90;;;;;;5068732;28;20040;-74
2021/12/09 11:57:42;;;;;;;76.95;29.67;;;2.60;99.90;;;;;;5048750;28;20047;-75
2021/12/09 12:06:54;;;;;;;87.25;32.35;;;2.80;99.90;;;;;;5070179;28;20029;-74
2021/12/09 12:12:41;;;;;;;85.22;31.42;;;2.80;99.90;;;;;;5068209;28;20036;-74
2021/12/09 12:15:28;;;;;;;89.90;31.50;;;2.80;99.90;;;;;;5069778;28;20079;-73
2021/12/09 12:29:50;;;;;;;81.13;32.05;;;2.80;99.90;;;;;;5073129;28;20037;-72
2021/12/09 12:32:38;;;;;;;82.40;32.60;;;2.80;99.90;;;;;;5069007;28;20048;-73
2021/12/09 12:36:27;;;;;;;91.30;32.17;;;2.80;99.90;;;;;;5062477;28;20025;-72
2021/12/09 12:41:05;;;;;;;91.32;33.08;;;2.90;99.90;;;;;;5071244;28;20547;-72
2021/12/09 12:43:33;;;;;;;;;;;2.90;99.90;;;;;;5053534;28;20032;-73
2021/12/09 12:51:32;;;;;;;84.93;32.83;;;3.00;99.90;;;;;;5072788;28;20067;-72
2021/12/09 12:54:07;;;;;;;81.72;31.33;;;3.00;99.90;;;;;;5072740;28;20032;-71
2021/12/09 12:56:42;;;;;;;85.90;30.10;;;3.10;99.90;;;;;;5065706;28;20053;-74
2021/12/09 12:59:13;;;;;;;82.28;31.38;;;3.10;99.90;;;;;;5062166;28;20781;-73
2021/12/09 13:01:43;;;;;;;;;;;3.10;99.90;;;;;;5057862;28;20029;-74
2021/12/09 13:07:20;;;;;;;86.10;31.25;;;3.10;99.90;;;;;;5053852;28;20367;-72
2021/12/09 13:10:05;;;;;;;84.78;32.40;;;3.20;99.90;;;;;;5052061;28;20033;-72
2021/12/09 13:12:41;;;;;;;87.25;32.45;;;3.30;99.90;;;;;;5034208;28;20029;-72
2021/12/09 13:15:22;;;;;;;84.95;31.77;;;3.40;99.90;;;;;;5052967;28;20025;-72
2021/12/09 13:17:59;;;;;;;;;;;3.40;99.90;;;;;;5047367;28;20041;-72
2021/12/09 13:20:31;;;;;;;296.15;119.80;;;3.40;99.90;;;;;;5056882;28;19919;-72
2021/12/09 13:23:25;;;;;;;275.85;124.70;;;3.30;99.90;;;;;;5051855;28;20036;-73
2021/12/09 13:26:12;;;;;;;105.60;40.33;;;3.40;99.90;;;;;;5039061;28;20029;-73
2021/12/09 13:29:00;;;;;;;106.55;44.50;;;3.40;99.90;;;;;;5053133;28;20028;-72